createdAt,value
2017-05-10T00:00:31.931Z,7.98
2017-05-10T00:02:58.938Z,8.34
2017-05-10T00:05:26.646Z,8.40
2017-05-10T00:07:53.643Z,8.22
2017-05-10T00:10:21.353Z,8.22
2017-05-10T00:12:48.371Z,8.70
2017-05-10T00:15:15.345Z,8.64
2017-05-10T00:17:42.316Z,8.22
2017-05-10T00:20:09.308Z,8.68
2017-05-10T00:22:36.283Z,9.22
2017-05-10T00:25:03.296Z,8.60
2017-05-10T00:27:31.011Z,8.80
2017-05-10T00:29:58.003Z,8.88
2017-05-10T00:32:24.972Z,8.40
2017-05-10T00:34:52.722Z,7.36
2017-05-10T00:37:20.436Z,7.90
2017-05-10T00:39:47.838Z,8.54
2017-05-10T00:42:14.846Z,8.36
2017-05-10T00:44:41.816Z,8.66
2017-05-10T00:47:08.799Z,8.40
2017-05-10T00:49:36.499Z,8.94
2017-05-10T00:52:03.506Z,8.64
2017-05-10T00:54:31.232Z,9.50
2017-05-10T00:56:58.226Z,9.28
2017-05-10T00:59:25.198Z,8.92
2017-05-10T01:01:52.201Z,9.08
2017-05-10T01:04:19.940Z,10.06
2017-05-10T01:06:46.909Z,8.24
2017-05-10T01:09:13.984Z,9.14
2017-05-10T01:11:40.962Z,8.65
2017-05-10T01:14:07.952Z,8.72
2017-05-10T01:16:35.343Z,8.80
2017-05-10T01:19:02.339Z,8.24
2017-05-10T01:21:30.065Z,8.13
2017-05-10T01:23:57.060Z,7.10
2017-05-10T01:26:24.784Z,7.66
2017-05-10T01:28:51.785Z,7.08
2017-05-10T01:31:18.777Z,8.35
2017-05-10T01:33:45.758Z,8.66
2017-05-10T01:36:13.510Z,8.14
2017-05-10T01:38:40.506Z,8.17
2017-05-10T01:41:07.575Z,7.98
2017-05-10T01:43:34.562Z,7.76
2017-05-10T01:46:02.358Z,7.15
2017-05-10T01:48:29.349Z,8.17
2017-05-10T01:50:56.360Z,7.15
2017-05-10T01:53:23.382Z,8.58
2017-05-10T01:55:50.354Z,10.26
2017-05-10T01:58:17.359Z,9.10
2017-05-10T02:00:45.098Z,9.53
2017-05-10T02:03:12.095Z,10.08
2017-05-10T02:05:39.068Z,9.92
2017-05-10T02:08:06.084Z,9.73
2017-05-10T02:10:33.078Z,10.55
2017-05-10T02:13:00.098Z,10.15
2017-05-10T02:15:27.085Z,9.37
2017-05-10T02:17:54.097Z,8.85
2017-05-10T02:20:21.244Z,10.02
2017-05-10T02:22:48.226Z,9.90
2017-05-10T02:25:15.239Z,10.13
2017-05-10T02:27:42.239Z,10.78
2017-05-10T02:30:09.997Z,10.95
2017-05-10T02:32:37.746Z,10.88
2017-05-10T02:35:04.776Z,10.67
2017-05-10T02:37:31.766Z,10.05
2017-05-10T02:39:59.533Z,10.32
2017-05-10T02:42:27.262Z,10.52
2017-05-10T02:44:54.271Z,10.43
2017-05-10T02:47:21.282Z,11.00
2017-05-10T02:49:49.016Z,10.42
2017-05-10T02:52:16.017Z,10.54
2017-05-10T02:54:42.997Z,9.53
2017-05-10T02:57:09.990Z,10.73
2017-05-10T02:59:36.957Z,11.07
2017-05-10T03:02:03.974Z,10.37
2017-05-10T03:04:30.952Z,11.95
2017-05-10T03:06:57.930Z,10.58
2017-05-10T03:09:24.930Z,10.70
2017-05-10T03:11:51.924Z,10.82
2017-05-10T03:14:18.926Z,10.52
2017-05-10T03:16:45.921Z,10.15
2017-05-10T03:19:12.922Z,11.78
2017-05-10T03:21:39.910Z,10.70
2017-05-10T03:24:06.915Z,10.27
2017-05-10T03:26:33.892Z,10.25
2017-05-10T03:29:00.885Z,10.20
2017-05-10T03:31:28.605Z,11.15
2017-05-10T03:33:55.600Z,12.08
2017-05-10T03:36:23.089Z,11.80
2017-05-10T03:38:50.067Z,12.23
2017-05-10T03:41:17.623Z,11.52
2017-05-10T03:43:44.620Z,12.38
2017-05-10T03:46:11.849Z,11.98
2017-05-10T03:48:39.568Z,21.50
2017-05-10T03:51:06.570Z,23.88
2017-05-10T03:53:33.545Z,15.04
2017-05-10T03:56:00.558Z,12.60
2017-05-10T03:58:28.292Z,12.97
2017-05-10T04:00:55.298Z,11.85
2017-05-10T04:03:22.505Z,12.30
2017-05-10T04:05:49.477Z,11.78
2017-05-10T04:08:16.823Z,12.17
2017-05-10T04:10:44.150Z,12.22
2017-05-10T04:13:11.157Z,12.12
2017-05-10T04:15:38.898Z,12.02
2017-05-10T04:18:05.901Z,12.73
2017-05-10T04:20:32.884Z,12.08
2017-05-10T04:22:59.908Z,12.45
2017-05-10T04:25:26.903Z,11.75
2017-05-10T04:27:53.881Z,11.80
2017-05-10T04:30:20.890Z,12.20
2017-05-10T04:32:47.896Z,12.55
2017-05-10T04:35:14.897Z,11.74
2017-05-10T04:37:41.887Z,12.45
2017-05-10T04:40:08.891Z,11.80
2017-05-10T04:42:35.866Z,12.92
2017-05-10T04:45:02.879Z,13.17
2017-05-10T04:47:29.866Z,11.62
2017-05-10T04:49:56.836Z,12.15
2017-05-10T04:52:23.844Z,12.17
2017-05-10T04:54:50.820Z,11.56
2017-05-10T04:57:18.554Z,12.23
2017-05-10T04:59:45.543Z,11.20
2017-05-10T05:02:12.573Z,12.22
2017-05-10T05:04:39.577Z,11.37
2017-05-10T05:07:07.315Z,11.70
2017-05-10T05:09:34.292Z,12.92
2017-05-10T05:12:01.292Z,12.35
2017-05-10T05:14:28.294Z,12.80
2017-05-10T05:16:55.277Z,13.55
2017-05-10T05:19:22.281Z,13.72
2017-05-10T05:21:49.277Z,14.80
2017-05-10T05:24:16.282Z,15.32
2017-05-10T05:26:43.269Z,14.93
2017-05-10T05:29:11.036Z,14.43
2017-05-10T05:31:38.023Z,15.38
2017-05-10T05:34:04.998Z,14.73
2017-05-10T05:36:32.768Z,15.00
2017-05-10T05:38:59.744Z,15.42
2017-05-10T05:41:27.488Z,15.64
2017-05-10T05:43:54.481Z,13.72
2017-05-10T05:46:22.234Z,14.96
2017-05-10T05:48:49.959Z,14.80
2017-05-10T05:51:16.939Z,14.38
2017-05-10T05:53:43.934Z,14.46
2017-05-10T05:56:10.906Z,14.98
2017-05-10T05:58:37.897Z,14.64
2017-05-10T06:01:05.642Z,15.90
2017-05-10T06:03:33.386Z,15.28
2017-05-10T06:06:01.110Z,14.40
2017-05-10T06:08:28.114Z,15.06
2017-05-10T06:10:55.089Z,15.46
2017-05-10T06:13:22.111Z,15.22
2017-05-10T06:15:49.078Z,15.34
2017-05-10T06:18:16.040Z,15.32
2017-05-10T06:20:43.028Z,15.08
2017-05-10T06:23:10.753Z,15.16
2017-05-10T06:25:37.745Z,14.82
2017-05-10T06:28:04.711Z,16.68
2017-05-10T06:30:31.713Z,14.50
2017-05-10T06:32:58.675Z,20.36
2017-05-10T06:35:25.679Z,17.64
2017-05-10T06:37:52.681Z,17.72
2017-05-10T06:40:19.682Z,22.18
2017-05-10T06:42:46.670Z,22.08
2017-05-10T06:45:13.675Z,16.10
2017-05-10T06:47:40.670Z,14.78
2017-05-10T06:50:07.642Z,14.80
2017-05-10T06:52:35.379Z,15.22
2017-05-10T06:55:02.356Z,15.06
2017-05-10T06:57:30.126Z,13.98
2017-05-10T06:59:57.302Z,16.02
2017-05-10T07:02:25.040Z,23.64
2017-05-10T07:04:52.774Z,19.68
2017-05-10T07:07:19.751Z,14.30
2017-05-10T07:09:46.744Z,15.16
2017-05-10T07:12:13.727Z,17.06
2017-05-10T07:14:40.739Z,13.50
2017-05-10T07:17:07.710Z,18.04
2017-05-10T07:19:34.680Z,13.56
2017-05-10T07:22:01.668Z,12.54
2017-05-10T07:24:29.422Z,11.74
2017-05-10T07:26:57.169Z,13.42
2017-05-10T07:29:24.146Z,11.96
2017-05-10T07:31:51.158Z,13.68
2017-05-10T07:34:18.136Z,12.62
2017-05-10T07:36:45.154Z,12.34
2017-05-10T07:39:12.126Z,12.66
2017-05-10T07:41:39.113Z,13.20
2017-05-10T07:44:06.108Z,12.68
2017-05-10T07:46:33.082Z,13.76
2017-05-10T07:49:00.069Z,11.38
2017-05-10T07:51:27.043Z,11.74
2017-05-10T07:53:54.072Z,12.52
2017-05-10T07:56:21.049Z,11.26
2017-05-10T07:58:48.058Z,11.10
2017-05-10T08:01:15.051Z,11.10
2017-05-10T08:03:42.019Z,11.60
2017-05-10T08:06:09.018Z,10.56
2017-05-10T08:08:35.990Z,10.94
2017-05-10T08:11:02.974Z,11.46
2017-05-10T08:13:30.686Z,12.12
2017-05-10T08:15:57.683Z,10.94
2017-05-10T08:18:24.650Z,10.14
2017-05-10T08:20:51.650Z,11.40
2017-05-10T08:23:19.359Z,11.50
2017-05-10T08:25:46.331Z,9.74
2017-05-10T08:28:14.061Z,10.70
2017-05-10T08:30:41.762Z,11.82
2017-05-10T08:33:08.753Z,9.86
2017-05-10T08:35:35.722Z,10.44
2017-05-10T08:38:02.713Z,10.88
2017-05-10T08:40:29.686Z,9.42
2017-05-10T08:42:56.694Z,10.32
2017-05-10T08:45:23.698Z,7.98
2017-05-10T08:47:50.659Z,8.60
2017-05-10T08:50:17.648Z,8.62
2017-05-10T08:52:44.620Z,8.68
2017-05-10T08:55:11.607Z,9.98
2017-05-10T08:57:38.588Z,10.34
2017-05-10T09:00:05.579Z,10.24
2017-05-10T09:02:32.569Z,10.04
2017-05-10T09:04:59.547Z,7.92
2017-05-10T09:07:26.542Z,7.76
2017-05-10T09:09:53.556Z,8.66
2017-05-10T09:12:20.559Z,7.88
2017-05-10T09:14:47.532Z,8.36
2017-05-10T09:17:14.529Z,8.36
2017-05-10T09:19:41.507Z,7.10
2017-05-10T09:22:08.513Z,6.68
2017-05-10T09:24:35.482Z,6.62
2017-05-10T09:27:02.450Z,7.60
2017-05-10T09:29:30.162Z,7.86
2017-05-10T09:31:57.124Z,7.02
2017-05-10T09:34:24.123Z,7.12
2017-05-10T09:36:51.087Z,7.32
2017-05-10T09:39:18.075Z,6.06
2017-05-10T09:41:45.033Z,6.38
2017-05-10T09:44:12.037Z,6.54
2017-05-10T09:46:39.004Z,5.38
2017-05-10T09:49:05.987Z,5.98
2017-05-10T09:51:33.718Z,5.74
2017-05-10T09:54:00.678Z,5.30
2017-05-10T09:56:35.263Z,5.90
2017-05-10T09:59:02.233Z,4.76
2017-05-10T10:01:29.993Z,5.82
2017-05-10T10:03:56.959Z,5.52
2017-05-10T10:06:24.686Z,5.62
2017-05-10T10:08:51.660Z,7.80
2017-05-10T10:11:18.659Z,6.46
2017-05-10T10:13:45.625Z,7.44
2017-05-10T10:16:12.617Z,7.94
2017-05-10T10:18:39.634Z,7.86
2017-05-10T10:21:07.346Z,8.66
2017-05-10T10:23:34.330Z,8.78
2017-05-10T10:26:01.298Z,7.24
2017-05-10T10:28:28.283Z,6.62
2017-05-10T10:30:55.986Z,6.84
2017-05-10T10:33:22.989Z,6.20
2017-05-10T10:35:50.697Z,7.28
2017-05-10T10:38:17.690Z,7.30
2017-05-10T10:40:45.397Z,7.18
2017-05-10T10:43:12.397Z,7.92
2017-05-10T10:45:40.109Z,8.42
2017-05-10T10:48:07.130Z,8.26
2017-05-10T10:50:34.095Z,9.68
2017-05-10T10:53:01.798Z,8.78
2017-05-10T10:55:28.790Z,7.40
2017-05-10T10:57:55.763Z,7.50
2017-05-10T11:00:23.511Z,7.00
2017-05-10T11:02:50.504Z,7.78
2017-05-10T11:05:17.488Z,7.02
2017-05-10T11:07:44.450Z,7.34
2017-05-10T11:10:11.453Z,6.92
2017-05-10T11:12:39.174Z,7.36
2017-05-10T11:15:06.137Z,7.28
2017-05-10T11:17:33.865Z,8.20
2017-05-10T11:20:00.835Z,7.68
2017-05-10T11:22:27.835Z,8.00
2017-05-10T11:24:55.555Z,6.24
2017-05-10T11:27:22.550Z,7.40
2017-05-10T11:29:50.258Z,6.60
2017-05-10T11:32:17.236Z,6.66
2017-05-10T11:34:44.208Z,6.60
2017-05-10T11:37:11.942Z,6.64
2017-05-10T11:39:38.977Z,5.94
2017-05-10T11:42:06.021Z,6.08
2017-05-10T11:44:33.018Z,5.16
2017-05-10T11:46:59.987Z,6.20
2017-05-10T11:49:26.982Z,6.38
2017-05-10T11:51:53.947Z,6.60
2017-05-10T11:54:20.938Z,6.38
2017-05-10T11:56:47.897Z,6.44
2017-05-10T11:59:14.934Z,6.70
2017-05-10T12:01:41.932Z,6.48
2017-05-10T12:04:08.894Z,6.30
2017-05-10T12:06:35.879Z,5.72
2017-05-10T12:09:02.915Z,6.62
2017-05-10T12:11:29.914Z,6.14
2017-05-10T12:13:57.623Z,5.88
2017-05-10T12:16:24.605Z,6.76
2017-05-10T12:18:51.605Z,6.08
2017-05-10T12:21:18.603Z,5.28
2017-05-10T12:23:45.589Z,5.68
2017-05-10T12:26:13.341Z,6.02
2017-05-10T12:28:40.347Z,5.88
2017-05-10T12:31:07.318Z,6.22
2017-05-10T12:33:34.342Z,5.26
2017-05-10T12:36:02.050Z,5.60
2017-05-10T12:38:29.043Z,4.42
2017-05-10T12:40:56.013Z,3.50
2017-05-10T12:43:23.009Z,2.90
2017-05-10T12:45:49.973Z,2.88
2017-05-10T12:48:16.969Z,2.90
2017-05-10T12:50:44.682Z,2.98
2017-05-10T12:53:11.682Z,2.78
2017-05-10T12:55:38.650Z,4.96
2017-05-10T12:58:05.638Z,4.94
2017-05-10T13:00:32.626Z,3.12
2017-05-10T13:03:00.338Z,2.48
2017-05-10T13:05:27.339Z,2.30
2017-05-10T13:07:54.307Z,2.62
2017-05-10T13:10:21.309Z,2.82
2017-05-10T13:12:48.286Z,3.08
2017-05-10T13:15:15.288Z,2.88
2017-05-10T13:17:42.263Z,3.26
2017-05-10T13:20:09.277Z,2.72
2017-05-10T13:22:37.218Z,2.60
2017-05-10T13:25:04.181Z,2.76
2017-05-10T13:27:31.197Z,3.14
2017-05-10T13:29:58.173Z,2.34
2017-05-10T13:32:25.170Z,2.52
2017-05-10T13:34:52.147Z,2.38
2017-05-10T13:37:19.142Z,2.38
2017-05-10T13:39:46.113Z,2.40
2017-05-10T13:42:13.103Z,3.76
2017-05-10T13:44:40.076Z,4.24
2017-05-10T13:47:07.073Z,4.54
2017-05-10T13:49:34.789Z,4.30
2017-05-10T13:52:01.769Z,4.96
2017-05-10T13:54:28.757Z,4.44
2017-05-10T13:56:55.736Z,3.78
2017-05-10T13:59:22.731Z,2.98
2017-05-10T14:01:49.710Z,2.30
2017-05-10T14:04:16.701Z,3.26
2017-05-10T14:06:43.687Z,2.44
2017-05-10T14:09:10.665Z,2.34
2017-05-10T14:11:37.672Z,2.52
2017-05-10T14:14:04.649Z,3.14
2017-05-10T14:16:32.386Z,4.30
2017-05-10T14:18:59.365Z,3.58
2017-05-10T14:21:26.372Z,4.10
2017-05-10T14:23:54.082Z,4.40
2017-05-10T14:26:21.056Z,3.60
2017-05-10T14:28:48.789Z,3.12
2017-05-10T14:31:15.757Z,4.10
2017-05-10T14:33:42.746Z,4.40
2017-05-10T14:36:09.712Z,4.32
2017-05-10T14:38:37.444Z,4.00
2017-05-10T14:41:04.416Z,4.28
2017-05-10T14:43:31.413Z,4.40
2017-05-10T14:45:58.382Z,4.60
2017-05-10T14:48:25.390Z,4.46
2017-05-10T14:50:52.363Z,4.24
2017-05-10T14:53:19.339Z,4.40
2017-05-10T14:55:46.339Z,5.18
2017-05-10T14:58:13.310Z,4.82
2017-05-10T15:00:40.300Z,4.16
2017-05-10T15:03:07.292Z,4.52
2017-05-10T15:05:34.312Z,4.38
2017-05-10T15:08:01.283Z,5.04
2017-05-10T15:10:28.258Z,4.02
2017-05-10T15:12:55.261Z,3.90
2017-05-10T15:15:22.233Z,4.00
2017-05-10T15:17:49.234Z,3.80
2017-05-10T15:20:16.206Z,3.70
2017-05-10T15:22:43.190Z,4.14
2017-05-10T15:25:10.162Z,4.40
2017-05-10T15:27:37.898Z,3.68
2017-05-10T15:30:04.872Z,4.24
2017-05-10T15:32:31.877Z,3.86
2017-05-10T15:34:58.854Z,3.70
2017-05-10T15:37:25.847Z,4.14
2017-05-10T15:39:52.823Z,4.66
2017-05-10T15:42:19.820Z,4.72
2017-05-10T15:44:46.804Z,3.90
2017-05-10T15:47:13.821Z,3.96
2017-05-10T15:49:41.541Z,4.56
2017-05-10T15:52:08.519Z,3.90
2017-05-10T15:54:35.517Z,3.98
2017-05-10T15:57:02.489Z,3.68
2017-05-10T15:59:29.486Z,3.84
2017-05-10T16:01:57.191Z,3.98
2017-05-10T16:04:24.178Z,4.50
2017-05-10T16:06:51.157Z,4.18
2017-05-10T16:09:18.142Z,4.40
2017-05-10T16:11:45.134Z,4.70
2017-05-10T16:14:12.107Z,4.44
2017-05-10T16:16:39.099Z,4.14
2017-05-10T16:19:06.079Z,4.88
2017-05-10T16:21:33.102Z,3.46
2017-05-10T16:24:00.813Z,4.82
2017-05-10T16:26:28.023Z,4.16
2017-05-10T16:28:55.792Z,3.90
2017-05-10T16:31:22.766Z,4.30
2017-05-10T16:33:49.763Z,4.34
2017-05-10T16:36:17.470Z,4.34
2017-05-10T16:38:45.225Z,4.28
2017-05-10T16:41:12.201Z,4.68
2017-05-10T16:43:39.207Z,4.62
2017-05-10T16:46:05.446Z,4.38
2017-05-10T16:48:32.455Z,4.46
2017-05-10T16:50:59.440Z,3.96
2017-05-10T16:53:26.431Z,4.64
2017-05-10T16:55:53.422Z,5.02
2017-05-10T16:58:21.139Z,5.04
2017-05-10T17:00:48.148Z,4.66
2017-05-10T17:03:15.126Z,5.82
2017-05-10T17:05:43.034Z,5.52
2017-05-10T17:08:10.030Z,4.72
2017-05-10T17:10:37.187Z,5.42
2017-05-10T17:13:04.368Z,4.88
2017-05-10T17:15:31.545Z,5.64
2017-05-10T17:17:59.001Z,5.08
2017-05-10T17:20:26.357Z,5.28
2017-05-10T17:22:54.532Z,5.32
2017-05-10T17:25:22.704Z,5.00
2017-05-10T17:27:50.131Z,5.48
2017-05-10T17:30:17.552Z,4.98
2017-05-10T17:32:45.727Z,4.90
2017-05-10T17:35:13.903Z,5.74
2017-05-10T17:37:41.313Z,5.24
2017-05-10T17:40:08.706Z,5.10
2017-05-10T17:42:36.153Z,4.90
2017-05-10T17:45:04.327Z,5.46
2017-05-10T17:47:31.665Z,6.90
2017-05-10T17:49:59.841Z,7.28
2017-05-10T17:52:28.607Z,6.44
2017-05-10T17:54:56.796Z,6.70
2017-05-10T17:57:24.174Z,6.00
2017-05-10T17:59:51.612Z,6.72
2017-05-10T18:02:20.297Z,5.32
2017-05-10T18:04:48.576Z,4.32
2017-05-10T18:07:15.968Z,4.76
2017-05-10T18:09:43.386Z,4.80
2017-05-10T18:12:10.835Z,4.10
2017-05-10T18:14:39.008Z,4.12
2017-05-10T18:17:07.183Z,4.26
2017-05-10T18:19:37.018Z,4.18
2017-05-10T18:22:04.441Z,4.18
2017-05-10T18:24:31.897Z,3.68
2017-05-10T18:27:00.073Z,3.68
2017-05-10T18:29:27.441Z,3.58
2017-05-10T18:31:54.829Z,3.02
2017-05-10T18:34:23.002Z,3.12
2017-05-10T18:36:50.741Z,2.94
2017-05-10T18:39:18.915Z,4.10
2017-05-10T18:41:47.088Z,3.36
2017-05-10T18:44:15.284Z,3.50
2017-05-10T18:46:42.718Z,3.42
2017-05-10T18:49:10.893Z,3.62
2017-05-10T18:51:39.066Z,4.12
2017-05-10T18:54:07.241Z,3.56
2017-05-10T18:56:35.313Z,3.38
2017-05-10T18:59:02.739Z,3.30
2017-05-10T19:01:30.913Z,3.32
2017-05-10T19:03:59.089Z,3.46
2017-05-10T19:06:27.264Z,3.50
2017-05-10T19:08:55.315Z,4.28
2017-05-10T19:11:22.722Z,3.20
2017-05-10T19:13:49.734Z,3.82
2017-05-10T19:16:16.742Z,3.32
2017-05-10T19:18:44.452Z,3.22
2017-05-10T19:21:11.439Z,3.44
2017-05-10T19:23:39.163Z,2.98
2017-05-10T19:26:06.358Z,3.16
2017-05-10T19:28:33.361Z,3.76
2017-05-10T19:31:01.081Z,2.94
2017-05-10T19:33:28.155Z,3.66
2017-05-10T19:35:55.877Z,3.58
2017-05-10T19:38:23.620Z,3.72
2017-05-10T19:40:50.597Z,4.18
2017-05-10T19:43:17.744Z,3.98
2017-05-10T19:45:44.754Z,4.08
2017-05-10T19:48:11.763Z,3.72
2017-05-10T19:50:38.740Z,4.22
2017-05-10T19:53:05.709Z,4.02
2017-05-10T19:55:32.721Z,4.22
2017-05-10T19:57:59.717Z,4.62
2017-05-10T20:00:26.715Z,3.92
2017-05-10T20:02:53.681Z,3.94
2017-05-10T20:05:20.670Z,4.70
2017-05-10T20:07:48.426Z,4.30
2017-05-10T20:10:16.253Z,4.68
2017-05-10T20:12:43.227Z,5.08
2017-05-10T20:15:10.222Z,4.56
2017-05-10T20:17:37.924Z,3.94
2017-05-10T20:20:04.925Z,4.08
2017-05-10T20:22:32.640Z,4.70
2017-05-10T20:24:59.613Z,5.10
2017-05-10T20:27:26.606Z,4.70
2017-05-10T20:29:53.698Z,4.80
2017-05-10T20:32:20.690Z,4.86
2017-05-10T20:34:48.421Z,4.68
2017-05-10T20:37:15.422Z,4.46
2017-05-10T20:39:42.398Z,5.06
2017-05-10T20:42:09.390Z,6.36
2017-05-10T20:44:37.123Z,5.98
2017-05-10T20:47:04.134Z,7.18
2017-05-10T20:49:31.119Z,5.14
2017-05-10T20:51:58.085Z,3.30
2017-05-10T20:54:25.099Z,3.42
2017-05-10T20:56:52.088Z,3.70
2017-05-10T20:59:19.107Z,3.62
2017-05-10T21:01:46.241Z,3.24
2017-05-10T21:04:13.241Z,3.40
2017-05-10T21:06:40.958Z,3.38
2017-05-10T21:09:07.967Z,3.84
2017-05-10T21:11:35.674Z,3.76
2017-05-10T21:14:02.685Z,3.72
2017-05-10T21:16:29.664Z,3.30
2017-05-10T21:18:56.636Z,3.72
2017-05-10T21:21:23.627Z,3.30
2017-05-10T21:23:50.720Z,3.22
2017-05-10T21:26:17.727Z,2.64
2017-05-10T21:28:44.688Z,2.86
2017-05-10T21:31:11.722Z,2.90
2017-05-10T21:33:38.742Z,2.80
2017-05-10T21:36:06.484Z,2.84
2017-05-10T21:38:33.453Z,2.84
2017-05-10T21:41:01.198Z,2.98
2017-05-10T21:43:28.426Z,2.94
2017-05-10T21:45:55.406Z,3.46
2017-05-10T21:48:22.403Z,4.60
2017-05-10T21:50:50.124Z,2.84
2017-05-10T21:53:17.110Z,3.50
2017-05-10T21:55:44.815Z,3.50
2017-05-10T21:58:11.818Z,3.58
2017-05-10T22:00:39.541Z,2.80
2017-05-10T22:03:06.610Z,3.90
2017-05-10T22:05:33.577Z,2.94
2017-05-10T22:08:01.321Z,3.22
2017-05-10T22:10:28.282Z,2.48
2017-05-10T22:12:55.247Z,3.32
2017-05-10T22:15:22.233Z,3.24
2017-05-10T22:17:49.201Z,2.70
2017-05-10T22:20:16.194Z,2.40
2017-05-10T22:22:43.256Z,2.30
2017-05-10T22:25:10.251Z,3.62
2017-05-10T22:27:37.227Z,2.74
2017-05-10T22:30:04.252Z,2.94
2017-05-10T22:32:32.089Z,2.66
2017-05-10T22:34:59.054Z,2.76
2017-05-10T22:37:26.043Z,3.60
2017-05-10T22:39:53.005Z,3.66
2017-05-10T22:42:19.997Z,3.60
2017-05-10T22:44:46.966Z,3.96
2017-05-10T22:47:14.272Z,3.76
2017-05-10T22:49:41.271Z,3.78
2017-05-10T22:52:08.444Z,3.86
2017-05-10T22:54:35.425Z,4.80
2017-05-10T22:57:02.392Z,4.24
2017-05-10T22:59:30.138Z,4.02
2017-05-10T23:01:57.132Z,4.82
2017-05-10T23:04:24.144Z,4.80
2017-05-10T23:06:51.861Z,4.48
2017-05-10T23:09:18.841Z,4.66
2017-05-10T23:11:45.810Z,4.42
2017-05-10T23:14:13.541Z,5.12
2017-05-10T23:16:40.506Z,4.54
2017-05-10T23:19:07.497Z,5.14
2017-05-10T23:21:34.481Z,4.28
2017-05-10T23:24:01.458Z,4.46
2017-05-10T23:26:29.184Z,4.60
2017-05-10T23:28:56.164Z,4.66
2017-05-10T23:31:23.894Z,4.98
2017-05-10T23:33:50.856Z,5.36
2017-05-10T23:36:18.579Z,4.60
2017-05-10T23:38:45.548Z,5.02
2017-05-10T23:41:12.560Z,5.00
2017-05-10T23:43:39.533Z,5.20
2017-05-10T23:46:06.499Z,5.28
2017-05-10T23:48:34.225Z,6.12
2017-05-10T23:51:01.197Z,4.54
2017-05-10T23:53:28.199Z,4.54
2017-05-10T23:55:55.169Z,5.46
2017-05-10T23:58:22.152Z,4.32
